sensor_id;sensor_type;location;lat;lon;timestamp;temperature;humidity
32815;DHT22;19165;48.182;16.374;2022-08-20T00:01:02;23.20;67.20
32815;DHT22;19165;48.182;16.374;2022-08-20T00:03:31;23.20;67.40
32815;DHT22;19165;48.182;16.374;2022-08-20T00:05:59;23.10;67.70
32815;DHT22;19165;48.182;16.374;2022-08-20T00:08:26;23.10;67.70
32815;DHT22;19165;48.182;16.374;2022-08-20T00:10:52;23.20;67.60
32815;DHT22;19165;48.182;16.374;2022-08-20T00:13:22;23.20;67.30
32815;DHT22;19165;48.182;16.374;2022-08-20T00:15:52;23.20;67.40
32815;DHT22;19165;48.182;16.374;2022-08-20T00:18:20;23.20;67.50
32815;DHT22;19165;48.182;16.374;2022-08-20T00:20:50;23.20;67.60
32815;DHT22;19165;48.182;16.374;2022-08-20T00:23:17;23.20;67.60
32815;DHT22;19165;48.182;16.374;2022-08-20T00:25:44;23.10;67.50
32815;DHT22;19165;48.182;16.374;2022-08-20T00:28:11;23.20;67.60
32815;DHT22;19165;48.182;16.374;2022-08-20T00:30:38;23.20;67.40
32815;DHT22;19165;48.182;16.374;2022-08-20T00:33:09;23.20;67.40
32815;DHT22;19165;48.182;16.374;2022-08-20T00:35:43;23.20;67.40
32815;DHT22;19165;48.182;16.374;2022-08-20T00:38:09;23.20;67.40
32815;DHT22;19165;48.182;16.374;2022-08-20T00:40:38;23.30;67.40
32815;DHT22;19165;48.182;16.374;2022-08-20T00:43:06;23.30;67.10
32815;DHT22;19165;48.182;16.374;2022-08-20T00:45:34;23.30;66.80
32815;DHT22;19165;48.182;16.374;2022-08-20T00:48:01;23.30;66.70
32815;DHT22;19165;48.182;16.374;2022-08-20T00:50:33;23.40;66.30
32815;DHT22;19165;48.182;16.374;2022-08-20T00:53:03;23.40;66.20
32815;DHT22;19165;48.182;16.374;2022-08-20T00:55:31;23.50;66.00
32815;DHT22;19165;48.182;16.374;2022-08-20T00:58:02;23.50;65.70
32815;DHT22;19165;48.182;16.374;2022-08-20T01:00:33;23.50;65.20
32815;DHT22;19165;48.182;16.374;2022-08-20T01:03:00;23.60;65.00
32815;DHT22;19165;48.182;16.374;2022-08-20T01:05:26;23.50;64.80
32815;DHT22;19165;48.182;16.374;2022-08-20T01:07:53;23.50;64.60
32815;DHT22;19165;48.182;16.374;2022-08-20T01:10:24;23.60;64.80
32815;DHT22;19165;48.182;16.374;2022-08-20T01:12:52;23.50;64.60
32815;DHT22;19165;48.182;16.374;2022-08-20T01:15:21;23.40;65.00
32815;DHT22;19165;48.182;16.374;2022-08-20T01:17:50;23.40;65.40
32815;DHT22;19165;48.182;16.374;2022-08-20T01:20:20;23.40;65.50
32815;DHT22;19165;48.182;16.374;2022-08-20T01:22:52;23.40;65.40
32815;DHT22;19165;48.182;16.374;2022-08-20T01:25:44;23.30;65.30
32815;DHT22;19165;48.182;16.374;2022-08-20T01:28:12;23.30;65.30
32815;DHT22;19165;48.182;16.374;2022-08-20T01:30:40;23.30;65.50
32815;DHT22;19165;48.182;16.374;2022-08-20T01:33:07;23.30;65.30
32815;DHT22;19165;48.182;16.374;2022-08-20T01:35:36;23.30;65.00
32815;DHT22;19165;48.182;16.374;2022-08-20T01:38:02;23.30;65.00
32815;DHT22;19165;48.182;16.374;2022-08-20T01:40:47;23.30;64.90
32815;DHT22;19165;48.182;16.374;2022-08-20T01:43:16;23.30;65.20
32815;DHT22;19165;48.182;16.374;2022-08-20T01:45:42;23.20;65.00
32815;DHT22;19165;48.182;16.374;2022-08-20T01:48:08;23.20;65.20
32815;DHT22;19165;48.182;16.374;2022-08-20T01:50:35;23.20;65.20
32815;DHT22;19165;48.182;16.374;2022-08-20T01:53:10;23.20;65.10
32815;DHT22;19165;48.182;16.374;2022-08-20T01:55:37;23.20;65.80
32815;DHT22;19165;48.182;16.374;2022-08-20T01:58:05;23.20;65.00
32815;DHT22;19165;48.182;16.374;2022-08-20T02:00:31;23.20;65.00
32815;DHT22;19165;48.182;16.374;2022-08-20T02:02:59;23.20;64.80
32815;DHT22;19165;48.182;16.374;2022-08-20T02:05:25;23.10;65.00
32815;DHT22;19165;48.182;16.374;2022-08-20T02:07:51;23.10;65.00
32815;DHT22;19165;48.182;16.374;2022-08-20T02:10:17;23.10;64.70
32815;DHT22;19165;48.182;16.374;2022-08-20T02:12:43;23.10;64.70
32815;DHT22;19165;48.182;16.374;2022-08-20T02:15:11;23.10;64.90
32815;DHT22;19165;48.182;16.374;2022-08-20T02:17:38;23.10;64.80
32815;DHT22;19165;48.182;16.374;2022-08-20T02:20:07;23.20;64.40
32815;DHT22;19165;48.182;16.374;2022-08-20T02:22:36;23.10;64.00
32815;DHT22;19165;48.182;16.374;2022-08-20T02:25:04;23.20;63.80
32815;DHT22;19165;48.182;16.374;2022-08-20T02:27:30;23.20;63.70
32815;DHT22;19165;48.182;16.374;2022-08-20T02:30:01;23.30;63.50
32815;DHT22;19165;48.182;16.374;2022-08-20T02:32:29;23.30;63.30
32815;DHT22;19165;48.182;16.374;2022-08-20T02:34:55;23.20;63.00
32815;DHT22;19165;48.182;16.374;2022-08-20T02:37:21;23.30;63.10
32815;DHT22;19165;48.182;16.374;2022-08-20T02:39:47;23.30;62.90
32815;DHT22;19165;48.182;16.374;2022-08-20T02:42:13;23.30;62.40
32815;DHT22;19165;48.182;16.374;2022-08-20T02:44:39;23.20;62.60
32815;DHT22;19165;48.182;16.374;2022-08-20T02:47:05;23.20;62.50
32815;DHT22;19165;48.182;16.374;2022-08-20T02:49:33;23.20;62.50
32815;DHT22;19165;48.182;16.374;2022-08-20T02:52:00;23.10;62.50
32815;DHT22;19165;48.182;16.374;2022-08-20T02:54:26;23.10;62.70
32815;DHT22;19165;48.182;16.374;2022-08-20T02:56:51;23.10;62.80
32815;DHT22;19165;48.182;16.374;2022-08-20T02:59:17;23.00;62.90
32815;DHT22;19165;48.182;16.374;2022-08-20T03:01:43;23.00;62.70
32815;DHT22;19165;48.182;16.374;2022-08-20T03:04:09;23.00;63.50
32815;DHT22;19165;48.182;16.374;2022-08-20T03:06:37;22.90;62.70
32815;DHT22;19165;48.182;16.374;2022-08-20T03:09:03;22.90;62.80
32815;DHT22;19165;48.182;16.374;2022-08-20T03:11:30;22.90;62.80
32815;DHT22;19165;48.182;16.374;2022-08-20T03:13:57;22.90;62.60
32815;DHT22;19165;48.182;16.374;2022-08-20T03:16:23;23.00;62.30
32815;DHT22;19165;48.182;16.374;2022-08-20T03:18:49;23.00;62.30
32815;DHT22;19165;48.182;16.374;2022-08-20T03:21:15;22.90;62.50
32815;DHT22;19165;48.182;16.374;2022-08-20T03:23:45;22.90;62.60
32815;DHT22;19165;48.182;16.374;2022-08-20T03:26:12;22.90;62.70
32815;DHT22;19165;48.182;16.374;2022-08-20T03:28:39;22.90;62.50
32815;DHT22;19165;48.182;16.374;2022-08-20T03:31:05;22.90;62.60
32815;DHT22;19165;48.182;16.374;2022-08-20T03:33:32;22.90;62.70
32815;DHT22;19165;48.182;16.374;2022-08-20T03:35:58;22.80;62.90
32815;DHT22;19165;48.182;16.374;2022-08-20T03:38:24;22.80;63.00
32815;DHT22;19165;48.182;16.374;2022-08-20T03:40:52;22.90;62.70
32815;DHT22;19165;48.182;16.374;2022-08-20T03:43:18;22.90;62.60
32815;DHT22;19165;48.182;16.374;2022-08-20T03:45:44;22.80;62.60
32815;DHT22;19165;48.182;16.374;2022-08-20T03:48:13;22.90;62.60
32815;DHT22;19165;48.182;16.374;2022-08-20T03:50:40;22.90;62.30
32815;DHT22;19165;48.182;16.374;2022-08-20T03:53:07;22.90;62.20
32815;DHT22;19165;48.182;16.374;2022-08-20T03:55:33;22.90;62.20
32815;DHT22;19165;48.182;16.374;2022-08-20T03:58:04;22.90;62.20
32815;DHT22;19165;48.182;16.374;2022-08-20T04:00:32;22.90;62.10
32815;DHT22;19165;48.182;16.374;2022-08-20T04:02:59;22.90;62.10
32815;DHT22;19165;48.182;16.374;2022-08-20T04:05:27;22.90;62.00
32815;DHT22;19165;48.182;16.374;2022-08-20T04:07:53;23.00;61.90
32815;DHT22;19165;48.182;16.374;2022-08-20T04:10:19;23.00;61.40
32815;DHT22;19165;48.182;16.374;2022-08-20T04:12:45;23.10;61.20
32815;DHT22;19165;48.182;16.374;2022-08-20T04:15:15;23.10;60.90
32815;DHT22;19165;48.182;16.374;2022-08-20T04:17:43;23.20;60.70
32815;DHT22;19165;48.182;16.374;2022-08-20T04:20:13;23.20;60.40
32815;DHT22;19165;48.182;16.374;2022-08-20T04:22:39;23.20;60.20
32815;DHT22;19165;48.182;16.374;2022-08-20T04:25:06;23.20;60.40
32815;DHT22;19165;48.182;16.374;2022-08-20T04:27:36;23.10;60.30
32815;DHT22;19165;48.182;16.374;2022-08-20T04:30:03;23.20;60.30
32815;DHT22;19165;48.182;16.374;2022-08-20T04:32:31;23.30;59.80
32815;DHT22;19165;48.182;16.374;2022-08-20T04:35:01;23.40;59.60
32815;DHT22;19165;48.182;16.374;2022-08-20T04:37:27;23.40;59.40
32815;DHT22;19165;48.182;16.374;2022-08-20T04:39:52;23.30;59.30
32815;DHT22;19165;48.182;16.374;2022-08-20T04:42:37;23.30;59.50
32815;DHT22;19165;48.182;16.374;2022-08-20T04:45:04;23.20;59.60
32815;DHT22;19165;48.182;16.374;2022-08-20T04:47:32;23.30;59.60
32815;DHT22;19165;48.182;16.374;2022-08-20T04:49:58;23.40;59.40
32815;DHT22;19165;48.182;16.374;2022-08-20T04:52:27;23.50;59.10
32815;DHT22;19165;48.182;16.374;2022-08-20T04:54:54;23.50;58.80
32815;DHT22;19165;48.182;16.374;2022-08-20T04:57:21;23.60;58.60
32815;DHT22;19165;48.182;16.374;2022-08-20T04:59:49;23.60;58.40
32815;DHT22;19165;48.182;16.374;2022-08-20T05:02:15;23.70;58.30
32815;DHT22;19165;48.182;16.374;2022-08-20T05:04:44;23.70;58.10
32815;DHT22;19165;48.182;16.374;2022-08-20T05:07:11;23.70;57.80
32815;DHT22;19165;48.182;16.374;2022-08-20T05:09:38;23.60;58.00
32815;DHT22;19165;48.182;16.374;2022-08-20T05:12:04;23.50;58.10
32815;DHT22;19165;48.182;16.374;2022-08-20T05:14:30;23.50;58.10
32815;DHT22;19165;48.182;16.374;2022-08-20T05:16:56;23.40;58.20
32815;DHT22;19165;48.182;16.374;2022-08-20T05:19:22;23.40;58.30
32815;DHT22;19165;48.182;16.374;2022-08-20T05:21:49;23.40;58.20
32815;DHT22;19165;48.182;16.374;2022-08-20T05:24:18;23.40;58.40
32815;DHT22;19165;48.182;16.374;2022-08-20T05:26:46;23.40;58.30
32815;DHT22;19165;48.182;16.374;2022-08-20T05:29:12;23.50;57.80
32815;DHT22;19165;48.182;16.374;2022-08-20T05:31:38;23.50;57.80
32815;DHT22;19165;48.182;16.374;2022-08-20T05:34:07;23.50;57.90
32815;DHT22;19165;48.182;16.374;2022-08-20T05:36:34;23.50;57.90
32815;DHT22;19165;48.182;16.374;2022-08-20T05:39:01;23.60;57.70
32815;DHT22;19165;48.182;16.374;2022-08-20T05:41:27;23.60;57.20
32815;DHT22;19165;48.182;16.374;2022-08-20T05:43:54;23.60;57.40
32815;DHT22;19165;48.182;16.374;2022-08-20T05:46:20;23.60;57.30
32815;DHT22;19165;48.182;16.374;2022-08-20T05:48:47;23.70;57.30
32815;DHT22;19165;48.182;16.374;2022-08-20T05:51:13;23.80;57.00
32815;DHT22;19165;48.182;16.374;2022-08-20T05:53:46;23.80;56.80
32815;DHT22;19165;48.182;16.374;2022-08-20T05:56:13;23.70;56.90
32815;DHT22;19165;48.182;16.374;2022-08-20T05:58:39;23.70;57.10
32815;DHT22;19165;48.182;16.374;2022-08-20T06:01:05;23.70;57.40
32815;DHT22;19165;48.182;16.374;2022-08-20T06:03:31;23.70;57.30
32815;DHT22;19165;48.182;16.374;2022-08-20T06:06:16;23.60;57.50
32815;DHT22;19165;48.182;16.374;2022-08-20T06:08:42;23.50;57.70
32815;DHT22;19165;48.182;16.374;2022-08-20T06:11:07;23.50;57.90
32815;DHT22;19165;48.182;16.374;2022-08-20T06:13:35;23.50;57.60
32815;DHT22;19165;48.182;16.374;2022-08-20T06:16:01;23.60;57.70
32815;DHT22;19165;48.182;16.374;2022-08-20T06:18:27;23.60;57.70
32815;DHT22;19165;48.182;16.374;2022-08-20T06:20:53;23.50;57.70
32815;DHT22;19165;48.182;16.374;2022-08-20T06:23:19;23.50;57.80
32815;DHT22;19165;48.182;16.374;2022-08-20T06:25:45;23.50;57.90
32815;DHT22;19165;48.182;16.374;2022-08-20T06:28:14;23.40;58.00
32815;DHT22;19165;48.182;16.374;2022-08-20T06:30:41;23.40;58.40
32815;DHT22;19165;48.182;16.374;2022-08-20T06:33:07;23.30;58.40
32815;DHT22;19165;48.182;16.374;2022-08-20T06:35:33;23.40;58.50
32815;DHT22;19165;48.182;16.374;2022-08-20T06:38:03;23.50;58.30
32815;DHT22;19165;48.182;16.374;2022-08-20T06:40:31;23.50;58.20
32815;DHT22;19165;48.182;16.374;2022-08-20T06:42:59;23.50;58.30
32815;DHT22;19165;48.182;16.374;2022-08-20T06:45:27;23.50;58.30
32815;DHT22;19165;48.182;16.374;2022-08-20T06:47:57;23.60;58.00
32815;DHT22;19165;48.182;16.374;2022-08-20T06:50:27;23.80;57.60
32815;DHT22;19165;48.182;16.374;2022-08-20T06:52:54;23.80;57.30
32815;DHT22;19165;48.182;16.374;2022-08-20T06:55:20;24.00;57.20
32815;DHT22;19165;48.182;16.374;2022-08-20T06:57:52;24.00;56.60
32815;DHT22;19165;48.182;16.374;2022-08-20T07:00:20;24.00;56.80
32815;DHT22;19165;48.182;16.374;2022-08-20T07:02:46;24.10;56.60
32815;DHT22;19165;48.182;16.374;2022-08-20T07:05:14;24.00;56.40
32815;DHT22;19165;48.182;16.374;2022-08-20T07:07:44;23.90;56.50
32815;DHT22;19165;48.182;16.374;2022-08-20T07:10:12;23.80;56.80
32815;DHT22;19165;48.182;16.374;2022-08-20T07:12:38;23.90;56.70
32815;DHT22;19165;48.182;16.374;2022-08-20T07:15:06;23.90;56.60
32815;DHT22;19165;48.182;16.374;2022-08-20T07:17:33;24.10;56.40
32815;DHT22;19165;48.182;16.374;2022-08-20T07:20:03;24.20;55.90
32815;DHT22;19165;48.182;16.374;2022-08-20T07:22:30;24.30;55.70
32815;DHT22;19165;48.182;16.374;2022-08-20T07:24:57;24.50;55.40
32815;DHT22;19165;48.182;16.374;2022-08-20T07:27:23;24.70;54.80
32815;DHT22;19165;48.182;16.374;2022-08-20T07:29:50;24.80;54.50
32815;DHT22;19165;48.182;16.374;2022-08-20T07:32:35;24.90;54.50
32815;DHT22;19165;48.182;16.374;2022-08-20T07:35:06;25.20;53.80
32815;DHT22;19165;48.182;16.374;2022-08-20T07:37:37;25.40;53.30
32815;DHT22;19165;48.182;16.374;2022-08-20T07:40:05;25.50;52.60
32815;DHT22;19165;48.182;16.374;2022-08-20T07:42:32;25.30;52.70
32815;DHT22;19165;48.182;16.374;2022-08-20T07:44:58;25.30;53.00
32815;DHT22;19165;48.182;16.374;2022-08-20T07:47:24;25.50;52.70
32815;DHT22;19165;48.182;16.374;2022-08-20T07:49:50;25.60;52.30
32815;DHT22;19165;48.182;16.374;2022-08-20T07:52:16;25.50;52.30
32815;DHT22;19165;48.182;16.374;2022-08-20T07:54:47;25.70;52.30
32815;DHT22;19165;48.182;16.374;2022-08-20T07:57:13;26.10;51.70
32815;DHT22;19165;48.182;16.374;2022-08-20T07:59:39;26.30;51.00
32815;DHT22;19165;48.182;16.374;2022-08-20T08:02:05;26.50;50.50
32815;DHT22;19165;48.182;16.374;2022-08-20T08:04:31;26.60;49.80
32815;DHT22;19165;48.182;16.374;2022-08-20T08:06:57;26.40;50.00
32815;DHT22;19165;48.182;16.374;2022-08-20T08:09:25;26.30;50.30
32815;DHT22;19165;48.182;16.374;2022-08-20T08:11:59;26.40;49.90
32815;DHT22;19165;48.182;16.374;2022-08-20T08:14:30;26.50;49.80
32815;DHT22;19165;48.182;16.374;2022-08-20T08:17:00;26.80;49.40
32815;DHT22;19165;48.182;16.374;2022-08-20T08:19:29;27.30;48.50
32815;DHT22;19165;48.182;16.374;2022-08-20T08:22:02;27.70;47.50
32815;DHT22;19165;48.182;16.374;2022-08-20T08:24:29;28.20;46.50
32815;DHT22;19165;48.182;16.374;2022-08-20T08:26:54;28.50;45.10
32815;DHT22;19165;48.182;16.374;2022-08-20T08:29:22;28.50;44.70
32815;DHT22;19165;48.182;16.374;2022-08-20T08:31:48;28.60;44.60
32815;DHT22;19165;48.182;16.374;2022-08-20T08:34:14;28.80;44.10
32815;DHT22;19165;48.182;16.374;2022-08-20T08:36:39;29.00;43.50
32815;DHT22;19165;48.182;16.374;2022-08-20T08:39:07;28.70;43.70
32815;DHT22;19165;48.182;16.374;2022-08-20T08:41:35;28.30;44.60
32815;DHT22;19165;48.182;16.374;2022-08-20T08:44:06;28.20;44.80
32815;DHT22;19165;48.182;16.374;2022-08-20T08:46:37;28.30;45.10
32815;DHT22;19165;48.182;16.374;2022-08-20T08:49:05;28.80;44.50
32815;DHT22;19165;48.182;16.374;2022-08-20T08:51:35;29.10;43.70
32815;DHT22;19165;48.182;16.374;2022-08-20T08:54:03;28.80;43.70
32815;DHT22;19165;48.182;16.374;2022-08-20T08:56:30;28.70;44.00
32815;DHT22;19165;48.182;16.374;2022-08-20T08:58:59;28.50;44.30
32815;DHT22;19165;48.182;16.374;2022-08-20T09:01:27;28.70;44.30
32815;DHT22;19165;48.182;16.374;2022-08-20T09:03:55;28.90;43.90
32815;DHT22;19165;48.182;16.374;2022-08-20T09:06:24;29.10;43.60
32815;DHT22;19165;48.182;16.374;2022-08-20T09:08:52;29.20;43.00
32815;DHT22;19165;48.182;16.374;2022-08-20T09:11:20;29.00;43.10
32815;DHT22;19165;48.182;16.374;2022-08-20T09:13:46;28.80;43.10
32815;DHT22;19165;48.182;16.374;2022-08-20T09:16:13;28.70;43.60
32815;DHT22;19165;48.182;16.374;2022-08-20T09:18:39;28.60;43.70
32815;DHT22;19165;48.182;16.374;2022-08-20T09:21:07;28.50;44.20
32815;DHT22;19165;48.182;16.374;2022-08-20T09:23:34;28.60;43.90
32815;DHT22;19165;48.182;16.374;2022-08-20T09:26:00;28.50;43.90
32815;DHT22;19165;48.182;16.374;2022-08-20T09:28:26;28.60;43.60
32815;DHT22;19165;48.182;16.374;2022-08-20T09:30:52;28.50;43.70
32815;DHT22;19165;48.182;16.374;2022-08-20T09:33:18;28.50;43.90
32815;DHT22;19165;48.182;16.374;2022-08-20T09:35:44;28.60;43.30
32815;DHT22;19165;48.182;16.374;2022-08-20T09:38:13;28.70;43.00
32815;DHT22;19165;48.182;16.374;2022-08-20T09:40:39;28.70;42.90
32815;DHT22;19165;48.182;16.374;2022-08-20T09:43:06;28.80;42.90
32815;DHT22;19165;48.182;16.374;2022-08-20T09:45:32;29.20;42.50
32815;DHT22;19165;48.182;16.374;2022-08-20T09:47:58;29.70;41.80
32815;DHT22;19165;48.182;16.374;2022-08-20T09:50:25;30.10;40.80
32815;DHT22;19165;48.182;16.374;2022-08-20T09:52:51;30.20;40.80
32815;DHT22;19165;48.182;16.374;2022-08-20T09:55:25;30.80;40.00
32815;DHT22;19165;48.182;16.374;2022-08-20T09:57:53;31.20;39.20
32815;DHT22;19165;48.182;16.374;2022-08-20T10:00:19;31.30;38.90
32815;DHT22;19165;48.182;16.374;2022-08-20T10:02:45;31.40;38.80
32815;DHT22;19165;48.182;16.374;2022-08-20T10:05:12;31.70;38.30
32815;DHT22;19165;48.182;16.374;2022-08-20T10:07:38;32.10;37.70
32815;DHT22;19165;48.182;16.374;2022-08-20T10:10:07;32.40;37.20
32815;DHT22;19165;48.182;16.374;2022-08-20T10:12:34;32.70;37.10
32815;DHT22;19165;48.182;16.374;2022-08-20T10:15:00;33.70;36.10
32815;DHT22;19165;48.182;16.374;2022-08-20T10:17:26;34.40;34.80
32815;DHT22;19165;48.182;16.374;2022-08-20T10:19:52;34.90;33.90
32815;DHT22;19165;48.182;16.374;2022-08-20T10:22:18;35.90;32.90
32815;DHT22;19165;48.182;16.374;2022-08-20T10:24:44;36.70;31.60
32815;DHT22;19165;48.182;16.374;2022-08-20T10:27:10;37.00;30.80
32815;DHT22;19165;48.182;16.374;2022-08-20T10:29:37;37.30;30.20
32815;DHT22;19165;48.182;16.374;2022-08-20T10:32:11;37.10;30.00
32815;DHT22;19165;48.182;16.374;2022-08-20T10:34:38;36.10;30.80
32815;DHT22;19165;48.182;16.374;2022-08-20T10:37:05;35.50;31.40
32815;DHT22;19165;48.182;16.374;2022-08-20T10:39:31;34.90;32.40
32815;DHT22;19165;48.182;16.374;2022-08-20T10:41:57;34.90;33.00
32815;DHT22;19165;48.182;16.374;2022-08-20T10:44:23;34.80;32.60
32815;DHT22;19165;48.182;16.374;2022-08-20T10:46:50;34.60;33.10
32815;DHT22;19165;48.182;16.374;2022-08-20T10:49:16;34.20;33.30
32815;DHT22;19165;48.182;16.374;2022-08-20T10:51:42;34.20;33.70
32815;DHT22;19165;48.182;16.374;2022-08-20T10:54:08;34.10;33.50
32815;DHT22;19165;48.182;16.374;2022-08-20T10:56:34;34.40;33.80
32815;DHT22;19165;48.182;16.374;2022-08-20T10:58:59;34.50;33.40
32815;DHT22;19165;48.182;16.374;2022-08-20T11:01:25;34.20;33.60
32815;DHT22;19165;48.182;16.374;2022-08-20T11:03:53;33.60;34.20
32815;DHT22;19165;48.182;16.374;2022-08-20T11:06:19;32.90;35.00
32815;DHT22;19165;48.182;16.374;2022-08-20T11:08:45;32.10;36.40
32815;DHT22;19165;48.182;16.374;2022-08-20T11:11:10;31.80;37.10
32815;DHT22;19165;48.182;16.374;2022-08-20T11:13:36;32.00;36.90
32815;DHT22;19165;48.182;16.374;2022-08-20T11:16:03;32.10;36.70
32815;DHT22;19165;48.182;16.374;2022-08-20T11:18:30;32.30;36.60
32815;DHT22;19165;48.182;16.374;2022-08-20T11:20:57;32.60;36.40
32815;DHT22;19165;48.182;16.374;2022-08-20T11:23:24;32.50;35.90
32815;DHT22;19165;48.182;16.374;2022-08-20T11:25:51;32.10;36.50
32815;DHT22;19165;48.182;16.374;2022-08-20T11:28:17;31.70;37.20
32815;DHT22;19165;48.182;16.374;2022-08-20T11:30:43;31.40;37.90
32815;DHT22;19165;48.182;16.374;2022-08-20T11:33:09;31.40;38.00
32815;DHT22;19165;48.182;16.374;2022-08-20T11:35:35;31.30;38.10
32815;DHT22;19165;48.182;16.374;2022-08-20T11:38:03;30.90;38.50
32815;DHT22;19165;48.182;16.374;2022-08-20T11:40:29;30.40;39.20
32815;DHT22;19165;48.182;16.374;2022-08-20T11:42:56;29.90;40.20
32815;DHT22;19165;48.182;16.374;2022-08-20T11:45:22;29.80;40.80
32815;DHT22;19165;48.182;16.374;2022-08-20T11:47:48;29.70;40.80
32815;DHT22;19165;48.182;16.374;2022-08-20T11:50:15;29.60;41.10
32815;DHT22;19165;48.182;16.374;2022-08-20T11:52:42;29.40;41.50
32815;DHT22;19165;48.182;16.374;2022-08-20T11:55:13;29.30;41.80
32815;DHT22;19165;48.182;16.374;2022-08-20T11:57:41;29.20;42.00
32815;DHT22;19165;48.182;16.374;2022-08-20T12:00:10;29.20;42.00
32815;DHT22;19165;48.182;16.374;2022-08-20T12:02:38;29.00;42.40
32815;DHT22;19165;48.182;16.374;2022-08-20T12:05:05;28.80;42.90
32815;DHT22;19165;48.182;16.374;2022-08-20T12:07:32;28.60;43.40
32815;DHT22;19165;48.182;16.374;2022-08-20T12:09:58;28.30;44.00
32815;DHT22;19165;48.182;16.374;2022-08-20T12:12:25;28.00;44.30
32815;DHT22;19165;48.182;16.374;2022-08-20T12:14:51;27.70;44.90
32815;DHT22;19165;48.182;16.374;2022-08-20T12:17:20;27.50;45.20
32815;DHT22;19165;48.182;16.374;2022-08-20T12:19:52;27.20;45.70
32815;DHT22;19165;48.182;16.374;2022-08-20T12:22:18;26.70;46.60
32815;DHT22;19165;48.182;16.374;2022-08-20T12:24:45;26.40;47.40
32815;DHT22;19165;48.182;16.374;2022-08-20T12:27:12;26.40;47.60
32815;DHT22;19165;48.182;16.374;2022-08-20T12:29:42;26.50;47.50
32815;DHT22;19165;48.182;16.374;2022-08-20T12:32:08;26.30;48.00
32815;DHT22;19165;48.182;16.374;2022-08-20T12:34:36;26.20;48.20
32815;DHT22;19165;48.182;16.374;2022-08-20T12:37:04;26.10;48.40
32815;DHT22;19165;48.182;16.374;2022-08-20T12:39:30;26.30;48.30
32815;DHT22;19165;48.182;16.374;2022-08-20T12:41:59;26.40;48.00
32815;DHT22;19165;48.182;16.374;2022-08-20T12:44:27;26.50;47.70
32815;DHT22;19165;48.182;16.374;2022-08-20T12:47:06;26.60;47.50
32815;DHT22;19165;48.182;16.374;2022-08-20T12:49:33;26.50;47.40
32815;DHT22;19165;48.182;16.374;2022-08-20T12:51:58;26.40;47.70
32815;DHT22;19165;48.182;16.374;2022-08-20T12:54:24;26.30;47.90
32815;DHT22;19165;48.182;16.374;2022-08-20T12:56:50;26.10;48.10
32815;DHT22;19165;48.182;16.374;2022-08-20T12:59:17;26.10;48.30
32815;DHT22;19165;48.182;16.374;2022-08-20T13:01:43;26.00;48.60
32815;DHT22;19165;48.182;16.374;2022-08-20T13:04:10;25.90;48.90
32815;DHT22;19165;48.182;16.374;2022-08-20T13:06:36;25.90;48.80
32815;DHT22;19165;48.182;16.374;2022-08-20T13:09:02;26.00;48.90
32815;DHT22;19165;48.182;16.374;2022-08-20T13:11:28;26.00;48.80
32815;DHT22;19165;48.182;16.374;2022-08-20T13:13:54;26.10;48.70
32815;DHT22;19165;48.182;16.374;2022-08-20T13:16:20;25.90;48.80
32815;DHT22;19165;48.182;16.374;2022-08-20T13:18:46;25.60;49.10
32815;DHT22;19165;48.182;16.374;2022-08-20T13:21:13;25.60;49.50
32815;DHT22;19165;48.182;16.374;2022-08-20T13:23:39;25.40;49.70
32815;DHT22;19165;48.182;16.374;2022-08-20T13:26:05;25.40;50.00
32815;DHT22;19165;48.182;16.374;2022-08-20T13:28:31;25.30;50.10
32815;DHT22;19165;48.182;16.374;2022-08-20T13:30:57;25.30;50.30
32815;DHT22;19165;48.182;16.374;2022-08-20T13:33:23;25.30;50.20
32815;DHT22;19165;48.182;16.374;2022-08-20T13:35:51;25.20;50.80
32815;DHT22;19165;48.182;16.374;2022-08-20T13:38:19;25.40;50.10
32815;DHT22;19165;48.182;16.374;2022-08-20T13:40:44;25.40;50.10
32815;DHT22;19165;48.182;16.374;2022-08-20T13:43:11;25.50;50.00
32815;DHT22;19165;48.182;16.374;2022-08-20T13:45:37;25.60;49.90
32815;DHT22;19165;48.182;16.374;2022-08-20T13:48:04;25.60;50.00
32815;DHT22;19165;48.182;16.374;2022-08-20T13:50:30;25.50;49.80
32815;DHT22;19165;48.182;16.374;2022-08-20T13:52:56;25.50;49.80
32815;DHT22;19165;48.182;16.374;2022-08-20T13:55:26;25.60;49.90
32815;DHT22;19165;48.182;16.374;2022-08-20T13:57:53;25.60;49.80
32815;DHT22;19165;48.182;16.374;2022-08-20T14:00:22;25.60;49.90
32815;DHT22;19165;48.182;16.374;2022-08-20T14:02:49;25.60;50.00
32815;DHT22;19165;48.182;16.374;2022-08-20T14:05:15;25.60;50.10
32815;DHT22;19165;48.182;16.374;2022-08-20T14:07:42;25.60;50.10
32815;DHT22;19165;48.182;16.374;2022-08-20T14:10:12;25.60;50.00
32815;DHT22;19165;48.182;16.374;2022-08-20T14:12:40;25.60;50.10
32815;DHT22;19165;48.182;16.374;2022-08-20T14:15:07;25.40;50.40
32815;DHT22;19165;48.182;16.374;2022-08-20T14:17:36;25.40;50.70
32815;DHT22;19165;48.182;16.374;2022-08-20T14:20:05;25.30;50.80
32815;DHT22;19165;48.182;16.374;2022-08-20T14:22:32;25.30;51.40
32815;DHT22;19165;48.182;16.374;2022-08-20T14:24:59;25.10;51.40
32815;DHT22;19165;48.182;16.374;2022-08-20T14:27:29;25.00;51.60
32815;DHT22;19165;48.182;16.374;2022-08-20T14:29:57;25.10;51.50
32815;DHT22;19165;48.182;16.374;2022-08-20T14:32:23;25.10;51.60
32815;DHT22;19165;48.182;16.374;2022-08-20T14:34:50;25.00;51.80
32815;DHT22;19165;48.182;16.374;2022-08-20T14:37:19;24.80;52.30
32815;DHT22;19165;48.182;16.374;2022-08-20T14:39:47;24.60;52.90
32815;DHT22;19165;48.182;16.374;2022-08-20T14:42:13;24.50;53.40
32815;DHT22;19165;48.182;16.374;2022-08-20T14:44:39;24.50;53.50
32815;DHT22;19165;48.182;16.374;2022-08-20T14:47:12;24.60;53.40
32815;DHT22;19165;48.182;16.374;2022-08-20T14:49:39;24.60;53.30
32815;DHT22;19165;48.182;16.374;2022-08-20T14:52:05;24.70;53.40
32815;DHT22;19165;48.182;16.374;2022-08-20T14:54:31;24.70;53.50
32815;DHT22;19165;48.182;16.374;2022-08-20T14:56:57;24.50;53.80
32815;DHT22;19165;48.182;16.374;2022-08-20T14:59:23;24.40;54.10
32815;DHT22;19165;48.182;16.374;2022-08-20T15:01:49;24.50;54.10
32815;DHT22;19165;48.182;16.374;2022-08-20T15:04:17;24.50;54.10
32815;DHT22;19165;48.182;16.374;2022-08-20T15:06:43;24.50;54.20
32815;DHT22;19165;48.182;16.374;2022-08-20T15:09:09;24.60;54.10
32815;DHT22;19165;48.182;16.374;2022-08-20T15:11:35;24.60;53.80
32815;DHT22;19165;48.182;16.374;2022-08-20T15:14:04;24.70;53.80
32815;DHT22;19165;48.182;16.374;2022-08-20T15:16:30;24.60;53.80